createdAt,value
2019-05-17T00:00:57.408Z,163.80
2019-05-17T00:01:57.503Z,71.30
2019-05-17T00:02:57.171Z,80.20
2019-05-17T00:03:56.508Z,52.50
2019-05-17T00:04:56.354Z,56.70
2019-05-17T00:05:57.028Z,66.90
2019-05-17T00:06:57.003Z,68.60
2019-05-17T00:07:56.677Z,71.20
2019-05-17T00:08:56.421Z,73.40
2019-05-17T00:09:57.059Z,71.40
2019-05-17T00:10:57.065Z,68.60
2019-05-17T00:11:56.799Z,74.40
2019-05-17T00:12:56.405Z,65.90
2019-05-17T00:13:56.961Z,60.60
2019-05-17T00:14:56.302Z,86.00
2019-05-17T00:15:56.614Z,73.40
2019-05-17T00:16:57.126Z,70.30
2019-05-17T00:17:56.957Z,71.60
2019-05-17T00:18:56.825Z,71.10
2019-05-17T00:19:56.827Z,84.40
2019-05-17T00:20:57.014Z,82.50
2019-05-17T00:21:56.673Z,73.90
2019-05-17T00:22:57.235Z,70.50
2019-05-17T00:23:57.094Z,60.30
2019-05-17T00:24:56.804Z,53.20
2019-05-17T00:25:56.407Z,75.00
2019-05-17T00:26:54.974Z,84.00
2019-05-17T00:27:56.365Z,62.60
2019-05-17T00:28:56.244Z,69.50
2019-05-17T00:29:56.994Z,119.20
2019-05-17T00:30:56.994Z,80.10
2019-05-17T00:31:56.862Z,69.70
2019-05-17T00:32:56.938Z,49.60
2019-05-17T00:33:56.626Z,56.70
2019-05-17T00:34:56.368Z,56.20
2019-05-17T00:35:56.287Z,47.30
2019-05-17T00:36:57.283Z,52.50
2019-05-17T00:37:56.958Z,58.60
2019-05-17T00:38:56.790Z,99.10
2019-05-17T00:39:56.678Z,53.70
2019-05-17T00:40:56.474Z,59.40
2019-05-17T00:41:57.156Z,58.90
2019-05-17T00:42:56.949Z,60.40
2019-05-17T00:43:56.817Z,57.10
2019-05-17T00:44:56.482Z,52.70
2019-05-17T00:45:57.288Z,70.20
2019-05-17T00:46:58.637Z,54.80
2019-05-17T00:47:57.117Z,78.70
2019-05-17T00:48:57.142Z,87.00
2019-05-17T00:49:56.841Z,144.60
2019-05-17T00:51:01.107Z,78.50
2019-05-17T00:51:56.731Z,63.00
2019-05-17T00:52:56.596Z,58.80
2019-05-17T00:53:56.218Z,100.30
2019-05-17T00:54:56.301Z,283.20
2019-05-17T00:55:56.944Z,133.00
2019-05-17T00:56:56.672Z,102.30
2019-05-17T00:57:56.494Z,75.50
2019-05-17T00:58:56.692Z,75.60
2019-05-17T00:59:56.544Z,86.40
2019-05-17T01:00:57.127Z,117.80
2019-05-17T01:01:56.218Z,88.70
2019-05-17T01:02:54.741Z,95.50
2019-05-17T01:03:56.997Z,108.30
2019-05-17T01:04:56.731Z,101.40
2019-05-17T01:05:56.686Z,114.80
2019-05-17T01:06:56.296Z,94.30
2019-05-17T01:07:54.708Z,89.60
2019-05-17T01:09:01.573Z,85.60
2019-05-17T01:09:56.564Z,81.60
2019-05-17T01:10:56.541Z,119.60
2019-05-17T01:11:56.607Z,135.90
2019-05-17T01:12:54.675Z,147.30
2019-05-17T01:13:56.496Z,183.40
2019-05-17T01:14:54.660Z,400.70
2019-05-17T01:15:56.599Z,258.30
2019-05-17T01:16:56.505Z,112.70
2019-05-17T01:17:56.283Z,81.40
2019-05-17T01:18:54.635Z,80.10
2019-05-17T01:19:54.631Z,75.30
2019-05-17T01:20:56.669Z,82.00
2019-05-17T01:21:56.688Z,98.90
2019-05-17T01:22:56.693Z,104.70
2019-05-17T01:23:56.273Z,86.50
2019-05-17T01:24:56.892Z,101.30
2019-05-17T01:25:56.704Z,102.90
2019-05-17T01:26:54.584Z,119.30
2019-05-17T01:27:56.381Z,101.20
2019-05-17T01:28:54.573Z,91.30
2019-05-17T01:29:54.562Z,119.80
2019-05-17T01:30:56.837Z,112.20
2019-05-17T01:31:56.953Z,135.10
2019-05-17T01:32:56.864Z,219.90
2019-05-17T01:33:56.495Z,179.40
2019-05-17T01:34:56.462Z,138.20
2019-05-17T01:35:54.524Z,151.00
2019-05-17T01:36:56.845Z,137.80
2019-05-17T01:37:56.467Z,285.90
2019-05-17T01:38:54.503Z,221.70
2019-05-17T01:39:54.498Z,231.60
2019-05-17T01:40:56.403Z,188.40
2019-05-17T01:41:54.484Z,146.80
2019-05-17T01:42:54.481Z,143.50
2019-05-17T01:43:56.780Z,125.90
2019-05-17T01:44:56.616Z,90.00
2019-05-17T01:45:54.457Z,110.20
2019-05-17T01:46:56.627Z,113.30
2019-05-17T01:47:56.296Z,129.10
2019-05-17T01:48:54.439Z,164.90
2019-05-17T01:49:54.431Z,187.10
2019-05-17T01:50:56.677Z,239.70
2019-05-17T01:51:56.672Z,155.20
2019-05-17T01:52:56.480Z,103.90
2019-05-17T01:53:54.407Z,113.50
2019-05-17T01:54:54.400Z,120.70
2019-05-17T01:55:56.649Z,142.20
2019-05-17T01:56:56.535Z,122.20
2019-05-17T01:57:56.389Z,125.60
2019-05-17T01:58:54.373Z,109.80
2019-05-17T01:59:54.367Z,114.50
2019-05-17T02:00:54.362Z,180.80
2019-05-17T02:01:56.448Z,160.50
2019-05-17T02:02:54.359Z,227.20
2019-05-17T02:03:54.342Z,93.00
2019-05-17T02:04:56.852Z,141.10
2019-05-17T02:05:56.456Z,203.20
2019-05-17T02:06:54.323Z,168.00
2019-05-17T02:07:56.819Z,155.00
2019-05-17T02:08:56.771Z,286.20
2019-05-17T02:09:56.713Z,361.60
2019-05-17T02:10:54.298Z,419.00
2019-05-17T02:11:54.293Z,386.50
2019-05-17T02:12:54.293Z,327.00
2019-05-17T02:13:56.199Z,401.30
2019-05-17T02:14:54.272Z,127.50
2019-05-17T02:15:56.483Z,89.60
2019-05-17T02:16:54.259Z,101.60
2019-05-17T02:17:54.252Z,132.50
2019-05-17T02:18:54.245Z,133.30
2019-05-17T02:19:54.240Z,134.90
2019-05-17T02:20:54.234Z,102.30
2019-05-17T02:21:56.867Z,112.00
2019-05-17T02:22:56.378Z,119.20
2019-05-17T02:23:54.212Z,121.60
2019-05-17T02:24:56.628Z,85.20
2019-05-17T02:25:54.199Z,76.50
2019-05-17T02:26:54.191Z,75.40
2019-05-17T02:27:54.186Z,106.70
2019-05-17T02:28:54.182Z,216.90
2019-05-17T02:29:54.172Z,60.10
2019-05-17T02:30:54.168Z,76.00
2019-05-17T02:31:54.166Z,151.80
2019-05-17T02:32:54.299Z,217.90
2019-05-17T02:33:54.147Z,274.80
2019-05-17T02:34:54.143Z,273.20
2019-05-17T02:35:54.143Z,232.90
2019-05-17T02:36:54.131Z,338.80
2019-05-17T02:37:54.120Z,278.60
2019-05-17T02:38:54.114Z,128.90
2019-05-17T02:40:03.032Z,255.40
2019-05-17T02:40:54.102Z,99.10
2019-05-17T02:41:54.096Z,148.90
2019-05-17T02:42:54.088Z,84.90
2019-05-17T02:43:54.092Z,101.80
2019-05-17T02:44:54.077Z,82.00
2019-05-17T02:45:54.077Z,107.90
2019-05-17T02:46:54.080Z,79.20
2019-05-17T02:47:54.057Z,74.60
2019-05-17T02:48:54.083Z,142.50
2019-05-17T02:49:54.041Z,150.90
2019-05-17T02:50:54.039Z,209.80
2019-05-17T02:51:54.029Z,296.90
2019-05-17T02:52:54.026Z,89.40
2019-05-17T02:53:54.019Z,128.40
2019-05-17T02:54:54.010Z,245.00
2019-05-17T02:55:54.218Z,182.00
2019-05-17T02:56:54.091Z,565.40
2019-05-17T02:57:53.992Z,414.60
2019-05-17T02:58:53.985Z,444.30
2019-05-17T02:59:53.979Z,549.00
2019-05-17T03:00:53.973Z,478.60
2019-05-17T03:01:53.972Z,394.60
2019-05-17T03:02:53.980Z,159.10
2019-05-17T03:03:53.952Z,144.20
2019-05-17T03:04:53.948Z,505.90
2019-05-17T03:05:53.940Z,450.20
2019-05-17T03:06:53.932Z,531.50
2019-05-17T03:07:53.930Z,306.90
2019-05-17T03:08:53.920Z,128.40
2019-05-17T03:10:10.508Z,389.30
2019-05-17T03:10:53.907Z,450.10
2019-05-17T03:11:57.062Z,363.20
2019-05-17T03:12:53.896Z,417.80
2019-05-17T03:13:53.892Z,465.20
2019-05-17T03:14:53.882Z,313.60
2019-05-17T03:15:53.877Z,359.80
2019-05-17T03:16:53.938Z,311.60
2019-05-17T03:17:53.913Z,177.60
2019-05-17T03:18:53.856Z,340.20
2019-05-17T03:19:53.848Z,265.80
2019-05-17T03:20:53.841Z,133.40
2019-05-17T03:21:53.833Z,519.20
2019-05-17T03:22:53.827Z,253.30
2019-05-17T03:23:54.119Z,466.40
2019-05-17T03:24:53.815Z,457.20
2019-05-17T03:25:53.807Z,408.00
2019-05-17T03:26:53.810Z,437.30
2019-05-17T03:27:53.922Z,480.40
2019-05-17T03:28:54.049Z,349.20
2019-05-17T03:29:53.991Z,452.90
2019-05-17T03:30:56.613Z,135.50
2019-05-17T03:31:59.961Z,268.70
2019-05-17T03:32:56.434Z,284.50
2019-05-17T03:33:55.745Z,344.90
2019-05-17T03:34:55.893Z,352.10
2019-05-17T03:35:56.535Z,424.70
2019-05-17T03:36:56.316Z,347.00
2019-05-17T03:37:53.727Z,396.40
2019-05-17T03:38:53.722Z,248.20
2019-05-17T03:39:53.779Z,420.80
2019-05-17T03:41:09.457Z,438.70
2019-05-17T03:41:53.778Z,260.80
2019-05-17T03:42:54.034Z,359.60
2019-05-17T03:43:53.693Z,358.90
2019-05-17T03:44:53.684Z,253.70
2019-05-17T03:45:53.677Z,343.00
2019-05-17T03:46:53.672Z,438.70
2019-05-17T03:47:53.672Z,323.60
2019-05-17T03:48:53.658Z,360.60
2019-05-17T03:49:53.656Z,392.90
2019-05-17T03:50:53.645Z,395.80
2019-05-17T03:51:53.639Z,376.40
2019-05-17T03:52:53.818Z,450.90
2019-05-17T03:53:53.634Z,427.20
2019-05-17T03:54:53.618Z,363.10
2019-05-17T03:55:54.223Z,418.00
2019-05-17T03:56:53.609Z,444.10
2019-05-17T03:57:53.662Z,388.10
2019-05-17T03:58:53.593Z,459.30
2019-05-17T03:59:53.586Z,366.30
2019-05-17T04:00:53.750Z,240.90
2019-05-17T04:01:53.573Z,443.20
2019-05-17T04:02:54.017Z,319.10
2019-05-17T04:03:53.560Z,436.20
2019-05-17T04:04:53.557Z,413.50
2019-05-17T04:05:53.546Z,414.60
2019-05-17T04:06:53.545Z,297.20
2019-05-17T04:07:53.899Z,324.30
2019-05-17T04:08:53.530Z,458.00
2019-05-17T04:09:53.590Z,239.30
2019-05-17T04:10:53.521Z,332.00
2019-05-17T04:11:53.858Z,176.00
2019-05-17T04:12:53.512Z,279.30
2019-05-17T04:13:53.993Z,166.20
2019-05-17T04:14:53.700Z,184.20
2019-05-17T04:15:53.486Z,254.00
2019-05-17T04:16:53.856Z,577.60
2019-05-17T04:17:53.473Z,341.10
2019-05-17T04:18:53.675Z,252.20
2019-05-17T04:19:53.644Z,486.20
2019-05-17T04:20:53.467Z,208.10
2019-05-17T04:21:53.831Z,428.90
2019-05-17T04:22:53.443Z,292.40
2019-05-17T04:23:53.941Z,307.50
2019-05-17T04:24:53.430Z,402.40
2019-05-17T04:25:53.548Z,329.10
2019-05-17T04:26:53.414Z,179.50
2019-05-17T04:27:53.715Z,167.00
2019-05-17T04:28:53.595Z,125.90
2019-05-17T04:29:53.583Z,186.00
2019-05-17T04:30:53.411Z,149.30
2019-05-17T04:31:54.535Z,183.70
2019-05-17T04:32:53.379Z,395.50
2019-05-17T04:33:53.748Z,578.00
2019-05-17T04:34:53.368Z,512.70
2019-05-17T04:35:53.985Z,443.10
2019-05-17T04:36:53.355Z,435.50
2019-05-17T04:37:53.398Z,415.00
2019-05-17T04:38:53.350Z,205.30
2019-05-17T04:39:53.340Z,324.70
2019-05-17T04:40:53.928Z,240.80
2019-05-17T04:41:54.729Z,173.70
2019-05-17T04:42:53.321Z,221.50
2019-05-17T04:43:53.441Z,236.80
2019-05-17T04:44:53.321Z,246.50
2019-05-17T04:45:53.878Z,218.40
2019-05-17T04:46:53.723Z,135.60
2019-05-17T04:47:53.292Z,166.50
2019-05-17T04:48:53.731Z,246.70
2019-05-17T04:49:53.740Z,233.00
2019-05-17T04:50:53.802Z,171.10
2019-05-17T04:51:53.266Z,229.60
2019-05-17T04:52:53.899Z,159.40
2019-05-17T04:53:53.288Z,288.00
2019-05-17T04:54:53.899Z,254.30
2019-05-17T04:55:54.045Z,124.30
2019-05-17T04:56:53.495Z,247.60
2019-05-17T04:57:53.416Z,379.40
2019-05-17T04:58:54.385Z,245.90
2019-05-17T04:59:53.219Z,192.40
2019-05-17T05:00:53.947Z,223.90
2019-05-17T05:01:53.880Z,200.20
2019-05-17T05:02:53.201Z,147.60
2019-05-17T05:03:53.197Z,144.00
2019-05-17T05:04:53.462Z,269.70
2019-05-17T05:05:53.680Z,502.40
2019-05-17T05:06:53.177Z,347.50
2019-05-17T05:07:53.681Z,305.40
2019-05-17T05:08:53.168Z,277.20
2019-05-17T05:09:53.167Z,129.40
2019-05-17T05:10:53.739Z,204.60
2019-05-17T05:12:00.732Z,76.70
2019-05-17T05:12:53.144Z,115.00
2019-05-17T05:13:53.352Z,160.50
2019-05-17T05:14:53.133Z,136.90
2019-05-17T05:15:53.133Z,141.20
2019-05-17T05:16:53.124Z,131.70
2019-05-17T05:17:53.119Z,206.50
2019-05-17T05:18:53.114Z,224.00
2019-05-17T05:19:53.195Z,273.30
2019-05-17T05:20:53.108Z,362.20
2019-05-17T05:21:53.097Z,459.80
2019-05-17T05:22:53.091Z,189.30
2019-05-17T05:23:53.086Z,362.70
2019-05-17T05:24:53.083Z,230.90
2019-05-17T05:25:53.085Z,267.20
2019-05-17T05:26:53.076Z,112.70
2019-05-17T05:27:53.067Z,248.70
2019-05-17T05:28:53.099Z,217.10
2019-05-17T05:29:53.055Z,144.30
2019-05-17T05:30:53.052Z,195.10
2019-05-17T05:31:53.040Z,64.20
2019-05-17T05:32:53.041Z,64.50
2019-05-17T05:33:53.038Z,63.50
2019-05-17T05:34:53.032Z,65.10
2019-05-17T05:35:53.027Z,38.10
2019-05-17T05:36:53.014Z,60.20
2019-05-17T05:37:53.019Z,98.90
2019-05-17T05:38:53.014Z,163.30
2019-05-17T05:39:54.601Z,200.50
2019-05-17T05:40:53.003Z,192.50
2019-05-17T05:42:05.102Z,77.30
2019-05-17T05:42:52.994Z,57.60
2019-05-17T05:43:52.989Z,60.70
2019-05-17T05:44:55.444Z,61.90
2019-05-17T05:45:53.682Z,47.30
2019-05-17T05:46:52.980Z,59.20
2019-05-17T05:47:52.972Z,70.40
2019-05-17T05:48:52.969Z,49.30
2019-05-17T05:49:52.963Z,40.60
2019-05-17T05:50:52.958Z,31.80
2019-05-17T05:51:52.956Z,23.00
2019-05-17T05:52:52.952Z,21.60
2019-05-17T05:53:52.947Z,21.90
2019-05-17T05:54:52.943Z,21.40
2019-05-17T05:55:52.941Z,18.50
2019-05-17T05:56:52.935Z,18.90
2019-05-17T05:57:52.932Z,17.90
2019-05-17T05:58:52.929Z,18.20
2019-05-17T05:59:52.925Z,17.60
2019-05-17T06:00:53.281Z,17.40
2019-05-17T06:01:52.918Z,18.00
2019-05-17T06:02:52.920Z,17.10
2019-05-17T06:03:52.904Z,16.70
2019-05-17T06:04:52.909Z,17.20
2019-05-17T06:05:52.903Z,17.00
2019-05-17T06:06:52.914Z,16.40
2019-05-17T06:07:52.902Z,16.90
2019-05-17T06:08:52.900Z,16.50
2019-05-17T06:09:52.901Z,16.30
2019-05-17T06:10:53.271Z,16.70
2019-05-17T06:11:52.894Z,16.80
2019-05-17T06:12:52.897Z,17.30
2019-05-17T06:13:52.896Z,17.30
2019-05-17T06:14:52.905Z,16.40
2019-05-17T06:15:52.889Z,16.50
2019-05-17T06:16:52.893Z,16.70
2019-05-17T06:17:52.878Z,16.30
2019-05-17T06:18:52.889Z,16.60
2019-05-17T06:19:52.891Z,16.30
2019-05-17T06:20:52.886Z,16.50
2019-05-17T06:21:52.889Z,16.20
2019-05-17T06:22:52.885Z,16.50
2019-05-17T06:23:52.889Z,16.70
2019-05-17T06:24:52.887Z,16.00
2019-05-17T06:25:52.886Z,16.50
2019-05-17T06:26:52.887Z,16.50
2019-05-17T06:27:52.903Z,17.80
2019-05-17T06:28:52.889Z,17.10
2019-05-17T06:29:52.895Z,17.50
2019-05-17T06:30:52.889Z,17.10
2019-05-17T06:31:52.891Z,16.70
2019-05-17T06:32:52.890Z,17.40
2019-05-17T06:33:52.891Z,17.10
2019-05-17T06:34:52.895Z,17.70
2019-05-17T06:35:52.895Z,17.40
2019-05-17T06:36:52.937Z,17.00
2019-05-17T06:37:53.581Z,17.00
2019-05-17T06:38:52.906Z,17.20
2019-05-17T06:39:52.896Z,17.00
2019-05-17T06:40:52.899Z,16.80
2019-05-17T06:41:52.901Z,17.20
2019-05-17T06:42:52.909Z,16.00
2019-05-17T06:43:52.915Z,15.30
2019-05-17T06:44:52.905Z,15.80
2019-05-17T06:45:52.905Z,15.50
2019-05-17T06:46:52.920Z,14.40
2019-05-17T06:47:52.910Z,14.40
2019-05-17T06:48:53.104Z,14.70
2019-05-17T06:49:53.540Z,14.20
2019-05-17T06:50:52.914Z,11.80
2019-05-17T06:51:52.918Z,12.20
2019-05-17T06:52:53.292Z,12.80
2019-05-17T06:53:52.920Z,13.20
2019-05-17T06:54:52.922Z,12.00
2019-05-17T06:55:53.409Z,11.50
2019-05-17T06:56:52.926Z,11.60
2019-05-17T06:57:52.934Z,11.20
2019-05-17T06:58:52.931Z,8.40
2019-05-17T06:59:52.940Z,8.50
2019-05-17T07:00:52.934Z,9.30
2019-05-17T07:01:52.936Z,7.20
2019-05-17T07:02:52.937Z,6.70
2019-05-17T07:03:52.939Z,7.20
2019-05-17T07:04:52.941Z,9.40
2019-05-17T07:05:52.945Z,9.20
2019-05-17T07:06:52.946Z,10.10
2019-05-17T07:07:52.949Z,10.50
2019-05-17T07:08:52.950Z,10.80
2019-05-17T07:09:52.956Z,10.90
2019-05-17T07:10:52.958Z,12.40
2019-05-17T07:11:52.958Z,12.80
2019-05-17T07:12:58.515Z,13.20
2019-05-17T07:13:52.965Z,13.40
2019-05-17T07:14:52.967Z,14.20
2019-05-17T07:15:52.968Z,14.10
2019-05-17T07:16:52.972Z,14.40
2019-05-17T07:17:52.975Z,14.70
2019-05-17T07:18:52.975Z,14.50
2019-05-17T07:19:52.979Z,15.50
2019-05-17T07:20:52.986Z,14.60
2019-05-17T07:21:52.987Z,14.70
2019-05-17T07:22:52.987Z,15.90
2019-05-17T07:23:52.992Z,16.20
2019-05-17T07:24:52.993Z,17.30
2019-05-17T07:25:52.997Z,17.70
2019-05-17T07:26:53.000Z,17.00
2019-05-17T07:27:53.002Z,17.90
2019-05-17T07:28:53.007Z,17.20
2019-05-17T07:29:53.009Z,15.20
2019-05-17T07:30:53.011Z,15.50
2019-05-17T07:31:53.015Z,16.10
2019-05-17T07:32:53.016Z,15.80
2019-05-17T07:33:53.021Z,14.60
2019-05-17T07:34:53.030Z,14.30
2019-05-17T07:35:53.034Z,13.00
2019-05-17T07:36:53.035Z,12.60
2019-05-17T07:37:53.031Z,12.70
2019-05-17T07:38:53.034Z,11.10
2019-05-17T07:40:01.151Z,10.40
2019-05-17T07:40:53.043Z,10.50
2019-05-17T07:41:53.043Z,9.10
2019-05-17T07:43:06.695Z,10.30
2019-05-17T07:43:53.050Z,10.60
2019-05-17T07:44:53.055Z,11.50
2019-05-17T07:45:53.059Z,11.70
2019-05-17T07:46:53.059Z,10.50
2019-05-17T07:47:53.063Z,11.20
2019-05-17T07:48:53.067Z,10.90
2019-05-17T07:49:54.634Z,11.60
2019-05-17T07:50:53.074Z,11.70
2019-05-17T07:51:53.078Z,11.40
2019-05-17T07:52:53.081Z,12.10
2019-05-17T07:53:53.090Z,12.60
2019-05-17T07:54:53.088Z,11.70
2019-05-17T07:55:53.091Z,11.80
2019-05-17T07:56:53.101Z,12.20
2019-05-17T07:57:53.099Z,12.30
2019-05-17T07:58:53.102Z,12.70
2019-05-17T07:59:53.107Z,12.90
2019-05-17T08:00:53.112Z,12.60
2019-05-17T08:01:53.112Z,12.80
2019-05-17T08:02:53.119Z,12.70
2019-05-17T08:03:53.123Z,12.80
2019-05-17T08:04:53.128Z,13.40
2019-05-17T08:05:53.130Z,13.90
2019-05-17T08:06:53.136Z,13.50
2019-05-17T08:07:53.138Z,13.60
2019-05-17T08:08:53.150Z,13.10
2019-05-17T08:09:53.161Z,13.00
2019-05-17T08:10:53.167Z,11.80
2019-05-17T08:11:53.158Z,12.50
2019-05-17T08:12:53.160Z,12.00
2019-05-17T08:13:53.175Z,12.80
2019-05-17T08:14:53.170Z,11.50
2019-05-17T08:15:53.173Z,11.70
2019-05-17T08:16:53.181Z,12.40
2019-05-17T08:17:53.182Z,12.30
2019-05-17T08:18:53.185Z,11.90
2019-05-17T08:19:53.191Z,12.50
2019-05-17T08:20:53.198Z,10.90
2019-05-17T08:21:53.199Z,10.90
2019-05-17T08:22:53.206Z,11.10
2019-05-17T08:23:53.222Z,11.40
2019-05-17T08:24:53.216Z,11.20
2019-05-17T08:25:56.247Z,11.60
2019-05-17T08:26:53.225Z,11.20
2019-05-17T08:27:53.229Z,10.70
2019-05-17T08:28:53.237Z,10.50
2019-05-17T08:29:53.237Z,10.80
2019-05-17T08:30:53.245Z,10.00
2019-05-17T08:31:53.313Z,9.70
2019-05-17T08:32:53.258Z,10.80
2019-05-17T08:33:53.265Z,10.10
2019-05-17T08:34:53.266Z,10.00
2019-05-17T08:35:53.275Z,10.50
2019-05-17T08:36:53.277Z,10.30
2019-05-17T08:37:53.288Z,10.20
2019-05-17T08:38:53.287Z,10.30
2019-05-17T08:39:53.293Z,10.00
2019-05-17T08:40:53.299Z,9.70
2019-05-17T08:41:53.306Z,10.50
2019-05-17T08:42:53.312Z,10.90
2019-05-17T08:43:53.317Z,10.30
2019-05-17T08:44:53.323Z,10.60
2019-05-17T08:45:53.328Z,10.00
2019-05-17T08:46:53.335Z,11.10
2019-05-17T08:47:53.337Z,11.40
2019-05-17T08:48:53.349Z,10.40
2019-05-17T08:49:53.349Z,10.00
2019-05-17T08:50:53.355Z,9.80
2019-05-17T08:51:53.363Z,9.80
2019-05-17T08:52:53.366Z,10.10
2019-05-17T08:53:53.371Z,10.20
2019-05-17T08:54:53.377Z,10.30
2019-05-17T08:55:53.382Z,10.20
2019-05-17T08:56:53.387Z,9.80
2019-05-17T08:57:53.393Z,10.00
2019-05-17T08:58:53.395Z,10.10
2019-05-17T08:59:53.400Z,9.70
2019-05-17T09:00:53.405Z,8.60
2019-05-17T09:01:53.411Z,9.80
2019-05-17T09:02:53.419Z,9.40
2019-05-17T09:03:53.418Z,9.20
2019-05-17T09:04:53.420Z,9.10
2019-05-17T09:05:53.436Z,8.80
2019-05-17T09:06:53.425Z,8.50
2019-05-17T09:07:53.430Z,8.00
2019-05-17T09:08:53.436Z,8.40
2019-05-17T09:09:53.433Z,8.30
2019-05-17T09:10:53.438Z,8.40
2019-05-17T09:11:53.440Z,8.40
2019-05-17T09:12:53.438Z,9.10
2019-05-17T09:13:58.053Z,8.80
2019-05-17T09:14:53.442Z,8.40
2019-05-17T09:15:53.444Z,8.50
2019-05-17T09:16:53.446Z,8.70
2019-05-17T09:17:53.444Z,7.90
2019-05-17T09:18:53.451Z,8.30
2019-05-17T09:19:54.423Z,8.80
2019-05-17T09:20:53.467Z,8.20
2019-05-17T09:21:53.450Z,8.90
2019-05-17T09:22:53.451Z,8.40
2019-05-17T09:23:53.451Z,9.40
2019-05-17T09:24:53.453Z,9.10
2019-05-17T09:25:53.452Z,9.30
2019-05-17T09:26:53.451Z,10.40
2019-05-17T09:27:53.452Z,11.20
2019-05-17T09:28:53.453Z,12.10
2019-05-17T09:29:53.453Z,11.40
2019-05-17T09:30:53.454Z,11.40
2019-05-17T09:31:53.454Z,10.40
2019-05-17T09:32:53.455Z,10.60
2019-05-17T09:33:53.454Z,11.20
2019-05-17T09:34:53.453Z,11.60
2019-05-17T09:35:53.453Z,11.30
2019-05-17T09:36:53.456Z,11.90
2019-05-17T09:37:53.464Z,11.60
2019-05-17T09:38:53.455Z,11.30
2019-05-17T09:39:53.453Z,10.60
2019-05-17T09:40:53.455Z,10.80
2019-05-17T09:41:53.455Z,10.40
2019-05-17T09:42:53.456Z,10.50
2019-05-17T09:43:53.453Z,10.60
2019-05-17T09:44:53.458Z,10.20
2019-05-17T09:45:53.456Z,10.40
2019-05-17T09:46:53.454Z,11.30
2019-05-17T09:47:53.456Z,10.50
2019-05-17T09:48:53.455Z,10.10
2019-05-17T09:49:53.455Z,10.20
2019-05-17T09:50:53.455Z,9.60
2019-05-17T09:51:53.456Z,9.60
2019-05-17T09:52:53.455Z,10.10
2019-05-17T09:53:53.455Z,10.30
2019-05-17T09:54:53.457Z,10.80
2019-05-17T09:55:53.463Z,10.50
2019-05-17T09:56:53.456Z,10.50
2019-05-17T09:57:53.457Z,10.50
2019-05-17T09:58:53.457Z,10.10
2019-05-17T09:59:55.915Z,9.30
2019-05-17T10:00:53.458Z,9.60
2019-05-17T10:01:53.458Z,9.10
2019-05-17T10:02:53.459Z,9.50
2019-05-17T10:03:53.460Z,9.60
2019-05-17T10:04:53.464Z,9.60
2019-05-17T10:05:53.460Z,9.60
2019-05-17T10:06:53.460Z,9.30
2019-05-17T10:07:53.462Z,9.70
2019-05-17T10:08:53.460Z,9.90
2019-05-17T10:09:53.459Z,9.50
2019-05-17T10:11:04.829Z,11.00
2019-05-17T10:11:53.461Z,11.80
2019-05-17T10:12:53.465Z,10.80
2019-05-17T10:13:53.461Z,10.60
2019-05-17T10:14:53.460Z,10.90
2019-05-17T10:15:53.463Z,10.50
2019-05-17T10:16:53.462Z,9.90
2019-05-17T10:17:53.462Z,9.60
2019-05-17T10:18:53.462Z,9.30
2019-05-17T10:19:53.463Z,10.20
2019-05-17T10:20:53.467Z,10.60
2019-05-17T10:21:53.466Z,9.90
2019-05-17T10:22:53.465Z,9.50
2019-05-17T10:23:53.464Z,10.20
2019-05-17T10:24:53.465Z,10.80
2019-05-17T10:25:53.464Z,10.10
2019-05-17T10:26:53.463Z,10.00
2019-05-17T10:27:53.465Z,9.30
2019-05-17T10:28:53.464Z,9.40
2019-05-17T10:29:53.465Z,9.30
2019-05-17T10:30:53.465Z,9.20
2019-05-17T10:31:53.465Z,9.40
2019-05-17T10:32:53.466Z,8.50
2019-05-17T10:33:53.466Z,8.50
2019-05-17T10:34:53.465Z,8.50
2019-05-17T10:35:53.469Z,8.40
2019-05-17T10:36:53.466Z,8.40
2019-05-17T10:37:53.468Z,8.30
2019-05-17T10:38:53.477Z,9.00
2019-05-17T10:39:53.468Z,8.50
2019-05-17T10:40:53.476Z,8.30
2019-05-17T10:41:53.468Z,8.90
2019-05-17T10:42:53.470Z,8.30
2019-05-17T10:43:53.471Z,8.40
2019-05-17T10:44:54.730Z,8.90
2019-05-17T10:45:53.476Z,9.80
2019-05-17T10:46:53.470Z,9.90
2019-05-17T10:47:53.474Z,9.60
2019-05-17T10:48:53.471Z,9.20
2019-05-17T10:49:53.478Z,9.80
2019-05-17T10:50:53.478Z,9.10
2019-05-17T10:51:53.474Z,9.30
2019-05-17T10:52:53.476Z,10.20
2019-05-17T10:53:53.473Z,9.10
2019-05-17T10:54:53.475Z,9.70
2019-05-17T10:55:53.473Z,8.60
2019-05-17T10:56:53.484Z,8.50
2019-05-17T10:57:53.474Z,9.10
2019-05-17T10:58:53.475Z,9.40
2019-05-17T10:59:53.477Z,10.00
2019-05-17T11:00:53.475Z,9.30
2019-05-17T11:01:53.477Z,9.60
2019-05-17T11:02:53.479Z,8.90
2019-05-17T11:03:53.477Z,9.10
2019-05-17T11:04:53.477Z,8.70
2019-05-17T11:05:53.477Z,8.00
2019-05-17T11:06:53.478Z,7.50
2019-05-17T11:07:53.481Z,6.70
2019-05-17T11:08:53.483Z,6.90
2019-05-17T11:09:53.485Z,6.70
2019-05-17T11:10:53.481Z,7.10
2019-05-17T11:11:53.489Z,6.30
2019-05-17T11:12:53.482Z,7.10
2019-05-17T11:13:53.484Z,7.40
2019-05-17T11:15:09.715Z,7.70
2019-05-17T11:15:53.485Z,7.40
2019-05-17T11:16:53.484Z,7.50
2019-05-17T11:17:53.481Z,7.00
2019-05-17T11:18:53.486Z,7.10
2019-05-17T11:19:53.485Z,6.60
2019-05-17T11:20:53.486Z,7.80
2019-05-17T11:21:53.489Z,8.00
2019-05-17T11:22:53.486Z,8.70
2019-05-17T11:23:53.492Z,7.90
2019-05-17T11:24:53.490Z,8.60
2019-05-17T11:25:53.495Z,8.90
2019-05-17T11:26:53.487Z,8.80
2019-05-17T11:27:53.524Z,8.40
2019-05-17T11:28:53.490Z,8.30
2019-05-17T11:29:53.487Z,8.10
2019-05-17T11:30:53.490Z,7.80
2019-05-17T11:31:53.489Z,7.70
2019-05-17T11:32:53.489Z,7.90
2019-05-17T11:33:53.492Z,8.00
2019-05-17T11:34:53.495Z,8.20
2019-05-17T11:35:53.493Z,8.10
2019-05-17T11:36:53.496Z,8.20
2019-05-17T11:37:53.493Z,8.10
2019-05-17T11:38:53.499Z,8.10
2019-05-17T11:39:53.495Z,7.80
2019-05-17T11:40:53.502Z,7.70
2019-05-17T11:41:53.497Z,7.40
2019-05-17T11:42:53.498Z,7.70
2019-05-17T11:43:53.500Z,8.30
2019-05-17T11:44:53.500Z,8.00
2019-05-17T11:45:53.498Z,7.50
2019-05-17T11:46:53.498Z,7.20
2019-05-17T11:47:53.499Z,7.10
2019-05-17T11:48:53.503Z,7.60
2019-05-17T11:49:53.511Z,7.10
2019-05-17T11:50:55.157Z,6.90
2019-05-17T11:51:53.502Z,6.40
2019-05-17T11:52:53.505Z,7.20
2019-05-17T11:53:53.522Z,7.10
2019-05-17T11:54:53.508Z,7.30
2019-05-17T11:55:53.506Z,7.10
2019-05-17T11:56:53.508Z,7.10
2019-05-17T11:57:53.507Z,7.60
2019-05-17T11:58:53.510Z,7.40
2019-05-17T11:59:53.512Z,7.00
2019-05-17T12:00:53.514Z,6.80
2019-05-17T12:01:53.512Z,6.80
2019-05-17T12:02:53.512Z,7.20
2019-05-17T12:03:53.518Z,7.00
2019-05-17T12:04:53.516Z,7.20
2019-05-17T12:05:53.522Z,7.60
2019-05-17T12:06:53.517Z,7.10
2019-05-17T12:07:53.522Z,7.30
2019-05-17T12:08:53.519Z,7.60
2019-05-17T12:09:53.520Z,8.30
2019-05-17T12:10:53.603Z,7.30
2019-05-17T12:11:53.527Z,7.80
2019-05-17T12:12:53.525Z,7.40
2019-05-17T12:13:53.523Z,7.50
2019-05-17T12:14:53.525Z,7.90
2019-05-17T12:15:53.527Z,7.30
2019-05-17T12:16:53.523Z,7.00
2019-05-17T12:17:53.530Z,8.00
2019-05-17T12:18:53.529Z,8.10
2019-05-17T12:19:53.531Z,7.70
2019-05-17T12:20:53.530Z,7.40
2019-05-17T12:21:53.531Z,7.20
2019-05-17T12:22:53.533Z,7.50
2019-05-17T12:23:53.552Z,7.60
2019-05-17T12:24:53.536Z,7.40
2019-05-17T12:25:53.534Z,7.90
2019-05-17T12:26:53.537Z,7.70
2019-05-17T12:27:53.535Z,7.80
2019-05-17T12:28:53.538Z,8.30
2019-05-17T12:29:53.537Z,8.40
2019-05-17T12:30:53.543Z,8.10
2019-05-17T12:31:53.540Z,8.00
2019-05-17T12:32:53.541Z,7.30
2019-05-17T12:33:53.544Z,7.20
2019-05-17T12:34:53.545Z,7.30
2019-05-17T12:35:53.544Z,6.80
2019-05-17T12:36:53.545Z,6.80
2019-05-17T12:37:53.546Z,7.10
2019-05-17T12:38:53.546Z,6.90
2019-05-17T12:39:53.549Z,6.70
2019-05-17T12:40:53.549Z,6.90
2019-05-17T12:41:53.634Z,6.80
2019-05-17T12:42:53.559Z,6.90
2019-05-17T12:43:53.551Z,6.50
2019-05-17T12:44:53.552Z,6.40
2019-05-17T12:46:00.635Z,6.60
2019-05-17T12:46:53.558Z,6.90
2019-05-17T12:47:53.559Z,7.00
2019-05-17T12:48:53.557Z,6.20
2019-05-17T12:49:53.572Z,6.00
2019-05-17T12:50:53.566Z,6.30
2019-05-17T12:51:53.560Z,6.40